FABL/BFN METAR and TAF weather

Enter ICAO airport designator
Station Type Date Time Source
FABL METAR 2022/06/29 01:00 UTC NOAA

FABL 290100Z AUTO 21003KT 9999 ///////// M01/M02 Q1034


Station Type Date Time Source
FABL Decoded METAR 2022/06/29 01:00 UTC NOAA

Bloemfontein, Bloemfontein Airport, South Africa (FABL) 29-06S 026-18E 1400M
Jun 28, 2022 - 09:00 PM EDT / 2022.06.29 0100 UTC
Wind: from the SSW (210 degrees) at 3 MPH (3 KT):0
Visibility: greater than 7 mile(s):0
Temperature: 30 F (-1 C)
Dew Point: 28 F (-2 C)
Relative Humidity: 92%
Pressure (altimeter): 30.53 in. Hg (1034 hPa)
ob: FABL 290100Z AUTO 21003KT 9999 ///////// M01/M02 Q1034
cycle: 1

Station Type Date Time Source
FABL TAF 2022/06/28 18:12 UTC NOAA

TAF TAF FABL 281600Z 2818/2918 VRB03KT CAVOK TX16/2912Z TNM01/2904Z

Example: see airport list